createdAt,value
2023-04-05T00:00:31.234Z,101768.25
2023-04-05T00:05:34.735Z,101769.13
2023-04-05T00:10:36.778Z,101766.44
2023-04-05T00:15:39.314Z,101750.56
2023-04-05T00:20:41.628Z,101746.97
2023-04-05T00:25:44.840Z,101750.63
2023-04-05T00:30:46.940Z,101756.00
2023-04-05T00:35:49.011Z,101762.97
2023-04-05T00:40:51.052Z,101753.47
2023-04-05T00:45:53.709Z,101753.34
2023-04-05T00:50:56.036Z,101742.69
2023-04-05T00:55:58.448Z,101730.31
2023-04-05T01:01:15.103Z,101738.38
2023-04-05T01:06:34.156Z,101727.75
2023-04-05T01:11:39.889Z,101719.88
2023-04-05T01:16:41.913Z,101725.19
2023-04-05T01:22:15.711Z,101721.69
2023-04-05T01:27:22.935Z,101713.69
2023-04-05T01:32:45.631Z,101725.19
2023-04-05T01:37:50.444Z,101722.53
2023-04-05T01:42:52.646Z,101724.34
2023-04-05T01:47:54.660Z,101723.47
2023-04-05T01:52:56.793Z,101727.84
2023-04-05T01:57:59.070Z,101718.22
2023-04-05T02:03:01.177Z,101712.75
2023-04-05T02:08:03.303Z,101718.22
2023-04-05T02:13:05.230Z,101710.19
2023-04-05T02:18:08.245Z,101703.28
2023-04-05T02:23:10.229Z,101692.63
2023-04-05T02:28:12.435Z,101696.09
2023-04-05T02:33:14.631Z,101704.06
2023-04-05T02:38:16.654Z,101702.31
2023-04-05T02:43:18.778Z,101701.44
2023-04-05T02:48:21.215Z,101701.44
2023-04-05T02:53:23.175Z,101712.88
2023-04-05T02:58:25.322Z,101716.47
2023-04-05T03:03:29.214Z,101707.72
2023-04-05T03:08:32.914Z,101693.50
2023-04-05T03:13:34.998Z,101692.66
2023-04-05T03:18:37.192Z,101684.72
2023-04-05T03:23:39.268Z,101689.97
2023-04-05T03:28:45.478Z,101685.69
2023-04-05T03:33:47.526Z,101678.53
2023-04-05T03:38:51.300Z,101675.19
2023-04-05T03:43:53.495Z,101677.00
2023-04-05T03:48:56.218Z,101671.78
2023-04-05T03:53:58.366Z,101668.00
2023-04-05T03:59:00.455Z,101663.59
2023-04-05T04:04:02.489Z,101664.47
2023-04-05T04:09:06.048Z,101665.34
2023-04-05T04:14:08.612Z,101655.69
2023-04-05T04:19:10.618Z,101660.94
2023-04-05T04:24:19.008Z,101654.81
2023-04-05T04:29:26.925Z,101657.41
2023-04-05T04:34:31.083Z,101657.34
2023-04-05T04:39:33.127Z,101656.50
2023-04-05T04:44:35.006Z,101650.47
2023-04-05T04:49:37.419Z,101654.84
2023-04-05T04:54:42.805Z,101654.03
2023-04-05T04:59:45.073Z,101655.69
2023-04-05T05:04:47.262Z,101657.47
2023-04-05T05:09:52.791Z,101650.41
2023-04-05T05:14:54.922Z,101654.88
2023-04-05T05:19:57.035Z,101653.06
2023-04-05T05:24:59.012Z,101660.19
2023-04-05T05:30:01.487Z,101659.34
2023-04-05T05:35:03.620Z,101661.13
2023-04-05T05:40:06.309Z,101655.78
2023-04-05T05:45:09.006Z,101649.59
2023-04-05T05:50:11.361Z,101653.16
2023-04-05T05:55:13.346Z,101658.44
2023-04-05T06:00:15.757Z,101655.84
2023-04-05T06:05:17.893Z,101654.13
2023-04-05T06:10:20.614Z,101650.56
2023-04-05T06:15:22.585Z,101654.22
2023-04-05T06:20:24.464Z,101649.91
2023-04-05T06:25:26.871Z,101652.13
2023-04-05T06:30:28.989Z,101649.81
2023-04-05T06:35:30.800Z,101652.16
2023-04-05T06:40:32.782Z,101657.38
2023-04-05T06:45:34.898Z,101642.13
2023-04-05T06:50:36.893Z,101648.41
2023-04-05T06:55:38.890Z,101641.91
2023-04-05T07:00:47.352Z,101648.72
2023-04-05T07:06:00.019Z,101655.00
2023-04-05T07:11:02.440Z,101656.59
2023-04-05T07:16:04.809Z,101654.38
2023-04-05T07:21:06.779Z,101649.06
2023-04-05T07:26:09.278Z,101667.00
2023-04-05T07:31:11.258Z,101663.56
2023-04-05T07:36:13.344Z,101667.94
2023-04-05T07:41:17.216Z,101661.94
2023-04-05T07:46:19.133Z,101664.97
2023-04-05T07:51:21.220Z,101665.00
2023-04-05T07:56:24.560Z,101665.00
2023-04-05T08:01:29.313Z,101677.34
2023-04-05T08:06:31.563Z,101673.88
2023-04-05T08:11:33.803Z,101670.38
2023-04-05T08:16:36.099Z,101674.44
2023-04-05T08:21:38.344Z,101679.88
2023-04-05T08:26:42.198Z,101674.59
2023-04-05T08:31:44.153Z,101666.72
2023-04-05T08:36:48.232Z,101663.94
2023-04-05T08:42:18.265Z,101665.81
2023-04-05T08:47:23.407Z,101665.81
2023-04-05T08:52:26.334Z,101661.34
2023-04-05T08:57:31.506Z,101660.53
2023-04-05T09:02:34.150Z,101651.75
2023-04-05T09:07:38.026Z,101654.50
2023-04-05T09:12:41.636Z,101650.03
2023-04-05T09:17:44.153Z,101642.88
2023-04-05T09:22:47.527Z,101646.53
2023-04-05T09:27:56.774Z,101650.16
2023-04-05T09:32:59.141Z,101641.69
2023-04-05T09:38:02.631Z,101629.47
2023-04-05T09:43:04.578Z,101639.81
2023-04-05T09:48:06.672Z,101642.81
2023-04-05T09:53:16.588Z,101632.94
2023-04-05T09:58:22.583Z,101627.75
2023-04-05T10:03:27.086Z,101626.81
2023-04-05T10:08:29.396Z,101626.91
2023-04-05T10:13:31.850Z,101615.47
2023-04-05T10:18:43.457Z,101609.19
2023-04-05T10:23:48.556Z,101619.84
2023-04-05T10:28:58.178Z,101617.22
2023-04-05T10:34:31.680Z,101606.50
2023-04-05T10:39:43.901Z,101607.44
2023-04-05T10:44:53.674Z,101615.50
2023-04-05T10:50:00.345Z,101607.53
2023-04-05T10:55:04.056Z,101601.03
2023-04-05T11:00:07.211Z,101594.03
2023-04-05T11:05:29.900Z,101585.09
2023-04-05T11:10:34.344Z,101585.19
2023-04-05T11:15:37.039Z,101580.97
2023-04-05T11:20:44.202Z,101580.00
2023-04-05T11:25:54.589Z,101566.69
2023-04-05T11:30:57.460Z,101570.44
2023-04-05T11:36:04.100Z,101556.88
2023-04-05T11:41:12.539Z,101555.66
2023-04-05T11:46:18.679Z,101542.94
2023-04-05T11:51:24.185Z,101532.78
2023-04-05T11:56:29.266Z,101523.06
2023-04-05T12:01:31.706Z,101522.22
2023-04-05T12:06:34.734Z,101515.38
2023-04-05T12:11:37.319Z,101513.91
2023-04-05T12:16:49.596Z,101509.34
2023-04-05T12:21:51.848Z,101502.31
2023-04-05T12:26:56.297Z,101499.00
2023-04-05T12:32:01.445Z,101504.97
2023-04-05T12:37:04.056Z,101492.72
2023-04-05T12:42:06.212Z,101489.06
2023-04-05T12:47:11.395Z,101478.66
2023-04-05T12:52:20.214Z,101481.34
2023-04-05T12:57:34.738Z,101476.63
2023-04-05T13:02:37.838Z,101457.88
2023-04-05T13:07:40.002Z,101460.41
2023-04-05T13:12:42.239Z,101456.94
2023-04-05T13:17:50.380Z,101454.22
2023-04-05T13:22:52.550Z,101453.44
2023-04-05T13:27:54.934Z,101449.88
2023-04-05T13:32:56.985Z,101438.38
2023-04-05T13:38:00.571Z,101437.00
2023-04-05T13:43:03.896Z,101432.25
2023-04-05T13:48:06.221Z,101420.91
2023-04-05T13:53:08.308Z,101414.63
2023-04-05T13:58:10.594Z,101413.44
2023-04-05T14:03:13.575Z,101409.50
2023-04-05T14:08:15.707Z,101407.84
2023-04-05T14:13:18.062Z,101403.00
2023-04-05T14:18:20.076Z,101393.63
2023-04-05T14:23:22.141Z,101390.94
2023-04-05T14:28:24.348Z,101384.44
2023-04-05T14:33:29.642Z,101376.44
2023-04-05T14:38:31.568Z,101370.09
2023-04-05T14:43:33.546Z,101365.94
2023-04-05T14:48:35.958Z,101365.50
2023-04-05T14:53:38.212Z,101363.97
2023-04-05T14:58:40.183Z,101365.09
2023-04-05T15:03:42.310Z,101356.03
2023-04-05T15:08:44.805Z,101353.81
2023-04-05T15:13:47.084Z,101349.94
2023-04-05T15:18:51.343Z,101352.19
2023-04-05T15:23:53.602Z,101340.81
2023-04-05T15:28:56.714Z,101341.25
2023-04-05T15:33:59.004Z,101334.28
2023-04-05T15:39:01.310Z,101333.84
2023-04-05T15:44:04.163Z,101318.94
2023-04-05T15:49:06.852Z,101324.09
2023-04-05T15:54:09.272Z,101317.66
2023-04-05T15:59:11.556Z,101317.75
2023-04-05T16:04:13.787Z,101315.84
2023-04-05T16:09:15.959Z,101310.50
2023-04-05T16:14:18.036Z,101299.00
2023-04-05T16:19:20.323Z,101295.44
2023-04-05T16:24:23.089Z,101299.97
2023-04-05T16:29:25.309Z,101291.75
2023-04-05T16:34:27.399Z,101288.28
2023-04-05T16:39:29.339Z,101287.47
2023-04-05T16:44:32.366Z,101297.47
2023-04-05T16:49:35.118Z,101283.84
2023-04-05T16:54:37.302Z,101284.00
2023-04-05T16:59:39.834Z,101280.38
2023-04-05T17:04:42.364Z,101291.94
2023-04-05T17:09:44.582Z,101293.06
2023-04-05T17:14:46.971Z,101284.88
2023-04-05T17:19:49.499Z,101281.47
2023-04-05T17:24:51.612Z,101281.34
2023-04-05T17:29:53.637Z,101285.69
2023-04-05T17:34:55.878Z,101290.06
2023-04-05T17:39:57.912Z,101296.28
2023-04-05T17:45:00.155Z,101293.41
2023-04-05T17:50:02.387Z,101290.63
2023-04-05T17:55:05.453Z,101292.78
2023-04-05T18:00:07.919Z,101285.03
2023-04-05T18:05:10.723Z,101290.19
2023-04-05T18:10:12.932Z,101291.13
2023-04-05T18:15:15.062Z,101290.19
2023-04-05T18:20:19.123Z,101291.13
2023-04-05T18:25:21.700Z,101289.28
2023-04-05T18:30:24.011Z,101295.03
2023-04-05T18:35:26.599Z,101292.03
2023-04-05T18:40:28.622Z,101297.22
2023-04-05T18:45:32.217Z,101299.88
2023-04-05T18:50:35.332Z,101295.44
2023-04-05T18:55:37.864Z,101300.97
2023-04-05T19:00:39.877Z,101306.22
2023-04-05T19:05:41.862Z,101307.09
2023-04-05T19:10:44.156Z,101311.47
2023-04-05T19:15:46.752Z,101315.81
2023-04-05T19:20:49.105Z,101315.69
2023-04-05T19:25:51.272Z,101320.31
2023-04-05T19:30:54.103Z,101316.63
2023-04-05T19:35:57.983Z,101313.84
2023-04-05T19:41:00.359Z,101314.06
2023-04-05T19:46:02.582Z,101318.50
2023-04-05T19:51:07.554Z,101312.44
2023-04-05T19:56:19.860Z,101309.69
2023-04-05T20:01:29.817Z,101310.56
2023-04-05T20:06:33.353Z,101307.91
2023-04-05T20:11:35.501Z,101306.06
2023-04-05T20:16:38.240Z,101293.78
2023-04-05T20:21:40.843Z,101299.13
2023-04-05T20:26:43.621Z,101291.94
2023-04-05T20:31:46.589Z,101290.13
2023-04-05T20:36:50.993Z,101285.91
2023-04-05T20:41:53.702Z,101278.88
2023-04-05T20:46:57.644Z,101276.22
2023-04-05T20:52:00.059Z,101276.16
2023-04-05T20:57:02.678Z,101276.22
2023-04-05T21:02:05.472Z,101277.13
2023-04-05T21:07:07.550Z,101282.34
2023-04-05T21:12:09.495Z,101276.09
2023-04-05T21:17:11.507Z,101273.66
2023-04-05T21:22:13.428Z,101271.97
2023-04-05T21:27:15.432Z,101273.75
2023-04-05T21:32:17.574Z,101270.13
2023-04-05T21:37:19.714Z,101265.78
2023-04-05T21:42:22.177Z,101267.50
2023-04-05T21:47:24.561Z,101270.16
2023-04-05T21:52:27.261Z,101260.50
2023-04-05T21:57:29.234Z,101267.50
2023-04-05T22:02:31.674Z,101266.69
2023-04-05T22:07:33.819Z,101258.78
2023-04-05T22:12:35.957Z,101258.75
2023-04-05T22:17:37.994Z,101250.69
2023-04-05T22:22:40.288Z,101256.03
2023-04-05T22:27:42.225Z,101251.78
2023-04-05T22:32:44.674Z,101254.38
2023-04-05T22:37:46.752Z,101248.97
2023-04-05T22:42:48.716Z,101245.41
2023-04-05T22:47:51.674Z,101240.22
2023-04-05T22:52:53.692Z,101242.88
2023-04-05T22:57:55.764Z,101243.81
2023-04-05T23:02:57.809Z,101236.75
2023-04-05T23:07:59.735Z,101235.03
2023-04-05T23:13:02.017Z,101221.59
2023-04-05T23:18:04.342Z,101212.00
2023-04-05T23:23:06.711Z,101212.94
2023-04-05T23:28:08.873Z,101216.47
2023-04-05T23:33:13.109Z,101209.31
2023-04-05T23:38:15.620Z,101206.84
2023-04-05T23:43:17.577Z,101198.94
2023-04-05T23:48:20.070Z,101191.72
2023-04-05T23:53:22.226Z,101195.34
2023-04-05T23:58:24.307Z,101194.47
